createdAt,value
2019-02-04T00:00:27.201Z,1026.99
2019-02-04T00:04:26.983Z,1026.92
2019-02-04T00:06:27.084Z,1026.95
2019-02-04T00:10:27.200Z,1026.95
2019-02-04T00:12:29.908Z,1026.94
2019-02-04T00:16:26.962Z,1026.95
2019-02-04T00:18:27.177Z,1026.97
2019-02-04T00:22:26.976Z,1026.90
2019-02-04T00:24:29.680Z,1026.91
2019-02-04T00:28:26.967Z,1026.94
2019-02-04T00:30:27.111Z,1026.85
2019-02-04T00:34:27.995Z,1026.87
2019-02-04T00:36:26.977Z,1026.84
2019-02-04T00:40:26.977Z,1026.89
2019-02-04T00:42:26.970Z,1026.87
2019-02-04T00:46:27.139Z,1026.78
2019-02-04T00:48:26.981Z,1026.74
2019-02-04T00:52:26.988Z,1026.67
2019-02-04T00:54:27.009Z,1026.57
2019-02-04T00:58:26.966Z,1026.63
2019-02-04T01:00:27.084Z,1026.69
2019-02-04T01:04:26.989Z,1026.67
2019-02-04T01:06:26.949Z,1026.76
2019-02-04T01:10:26.978Z,1026.78
2019-02-04T01:12:26.988Z,1026.84
2019-02-04T01:16:26.981Z,1026.80
2019-02-04T01:18:27.025Z,1026.86
2019-02-04T01:22:26.970Z,1026.88
2019-02-04T01:24:26.986Z,1026.84
2019-02-04T01:28:26.976Z,1026.80
2019-02-04T01:30:27.009Z,1026.80
2019-02-04T01:34:27.006Z,1026.78
2019-02-04T01:36:26.986Z,1026.78
2019-02-04T01:40:26.997Z,1026.79
2019-02-04T01:42:27.015Z,1026.85
2019-02-04T01:46:26.980Z,1026.89
2019-02-04T01:48:27.008Z,1026.77
2019-02-04T01:52:27.008Z,1026.79
2019-02-04T01:54:27.007Z,1026.78
2019-02-04T01:58:26.996Z,1026.77
2019-02-04T02:00:26.988Z,1026.82
2019-02-04T02:04:27.006Z,1026.87
2019-02-04T02:06:27.019Z,1026.80
2019-02-04T02:10:27.061Z,1026.87
2019-02-04T02:12:27.007Z,1026.82
2019-02-04T02:16:27.000Z,1026.89
2019-02-04T02:18:26.999Z,1026.94
2019-02-04T02:22:27.025Z,1026.92
2019-02-04T02:24:26.997Z,1026.93
2019-02-04T02:28:27.014Z,1026.99
2019-02-04T02:30:26.989Z,1026.98
2019-02-04T02:34:27.020Z,1026.87
2019-02-04T02:36:26.990Z,1026.88
2019-02-04T02:40:27.016Z,1026.83
2019-02-04T02:42:27.021Z,1026.87
2019-02-04T02:46:27.010Z,1026.73
2019-02-04T02:48:27.000Z,1026.64
2019-02-04T02:52:27.005Z,1026.64
2019-02-04T02:54:27.022Z,1026.57
2019-02-04T02:58:27.006Z,1026.51
2019-02-04T03:00:27.020Z,1026.57
2019-02-04T03:04:27.043Z,1026.51
2019-02-04T03:06:26.999Z,1026.47
2019-02-04T03:10:27.058Z,1026.47
2019-02-04T03:12:27.031Z,1026.44
2019-02-04T03:16:27.024Z,1026.50
2019-02-04T03:18:26.994Z,1026.56
2019-02-04T03:22:27.009Z,1026.49
2019-02-04T03:24:27.012Z,1026.41
2019-02-04T03:28:27.046Z,1026.52
2019-02-04T03:30:27.010Z,1026.49
2019-02-04T03:34:27.018Z,1026.54
2019-02-04T03:36:27.034Z,1026.50
2019-02-04T03:40:27.011Z,1026.52
2019-02-04T03:42:27.026Z,1026.46
2019-02-04T03:46:27.006Z,1026.47
2019-02-04T03:48:27.004Z,1026.54
2019-02-04T03:52:27.032Z,1026.57
2019-02-04T03:54:27.084Z,1026.58
2019-02-04T03:58:27.016Z,1026.50
2019-02-04T04:00:27.019Z,1026.45
2019-02-04T04:04:27.044Z,1026.52
2019-02-04T04:06:27.038Z,1026.55
2019-02-04T04:10:27.041Z,1026.44
2019-02-04T04:12:27.058Z,1026.41
2019-02-04T04:16:27.030Z,1026.41
2019-02-04T04:18:27.054Z,1026.49
2019-02-04T04:22:27.028Z,1026.48
2019-02-04T04:24:27.073Z,1026.45
2019-02-04T04:28:27.071Z,1026.45
2019-02-04T04:30:27.049Z,1026.43
2019-02-04T04:34:27.062Z,1026.34
2019-02-04T04:36:27.048Z,1026.38
2019-02-04T04:40:27.038Z,1026.46
2019-02-04T04:42:27.028Z,1026.41
2019-02-04T04:46:27.073Z,1026.38
2019-02-04T04:48:27.048Z,1026.40
2019-02-04T04:52:27.079Z,1026.37
2019-02-04T04:54:27.048Z,1026.34
2019-02-04T04:58:27.075Z,1026.43
2019-02-04T05:00:27.044Z,1026.44
2019-02-04T05:04:27.047Z,1026.42
2019-02-04T05:08:27.029Z,1026.35
2019-02-04T05:10:27.080Z,1026.38
2019-02-04T05:14:27.027Z,1026.25
2019-02-04T05:16:27.061Z,1026.26
2019-02-04T05:20:27.056Z,1026.26
2019-02-04T05:22:27.032Z,1026.29
2019-02-04T05:26:27.017Z,1026.25
2019-02-04T05:28:27.060Z,1026.20
2019-02-04T05:32:27.062Z,1026.19
2019-02-04T05:34:27.031Z,1026.16
2019-02-04T05:38:27.076Z,1026.18
2019-02-04T05:40:27.052Z,1026.16
2019-02-04T05:44:27.055Z,1026.19
2019-02-04T05:46:27.054Z,1026.20
2019-02-04T05:50:27.096Z,1026.17
2019-02-04T05:52:27.048Z,1026.18
2019-02-04T05:56:27.059Z,1026.04
2019-02-04T05:58:27.071Z,1025.98
2019-02-04T06:02:27.053Z,1025.97
2019-02-04T06:04:27.063Z,1026.05
2019-02-04T06:08:27.078Z,1026.08
2019-02-04T06:10:27.044Z,1026.06
2019-02-04T06:14:27.096Z,1026.09
2019-02-04T06:16:27.080Z,1025.96
2019-02-04T06:20:27.051Z,1026.01
2019-02-04T06:22:27.087Z,1026.04
2019-02-04T06:26:27.072Z,1025.93
2019-02-04T06:28:27.044Z,1025.86
2019-02-04T06:32:27.045Z,1025.83
2019-02-04T06:34:27.051Z,1025.89
2019-02-04T06:38:27.055Z,1025.90
2019-02-04T06:40:27.074Z,1025.82
2019-02-04T06:44:27.052Z,1025.86
2019-02-04T06:46:27.100Z,1025.83
2019-02-04T06:50:27.087Z,1025.93
2019-02-04T06:52:27.084Z,1025.95
2019-02-04T06:56:27.077Z,1025.92
2019-02-04T06:58:27.093Z,1025.88
2019-02-04T07:02:27.078Z,1025.79
2019-02-04T07:04:27.080Z,1025.80
2019-02-04T07:08:27.094Z,1025.82
2019-02-04T07:10:27.075Z,1025.84
2019-02-04T07:14:27.096Z,1025.85
2019-02-04T07:16:27.081Z,1025.87
2019-02-04T07:20:27.103Z,1025.86
2019-02-04T07:22:27.127Z,1025.91
2019-02-04T07:26:27.093Z,1025.87
2019-02-04T07:28:27.166Z,1025.86
2019-02-04T07:32:27.102Z,1025.92
2019-02-04T07:34:27.084Z,1025.89
2019-02-04T07:38:27.087Z,1025.81
2019-02-04T07:40:27.076Z,1025.80
2019-02-04T07:44:27.219Z,1025.70
2019-02-04T07:46:27.100Z,1025.77
2019-02-04T07:50:27.106Z,1025.78
2019-02-04T07:52:27.071Z,1025.84
2019-02-04T07:56:27.140Z,1025.78
2019-02-04T07:58:27.086Z,1025.73
2019-02-04T08:02:27.098Z,1025.69
2019-02-04T08:06:27.133Z,1025.76
2019-02-04T08:08:27.133Z,1025.72
2019-02-04T08:12:27.094Z,1025.73
2019-02-04T08:16:27.075Z,1025.64
2019-02-04T08:18:27.099Z,1025.53
2019-02-04T08:22:27.092Z,1025.53
2019-02-04T08:24:27.102Z,1025.55
2019-02-04T08:28:27.103Z,1025.45
2019-02-04T08:30:27.100Z,1025.45
2019-02-04T08:34:27.101Z,1025.52
2019-02-04T08:36:27.107Z,1025.43
2019-02-04T08:40:27.098Z,1025.47
2019-02-04T08:42:27.098Z,1025.54
2019-02-04T08:46:27.136Z,1025.55
2019-02-04T08:48:27.108Z,1025.56
2019-02-04T08:52:27.259Z,1025.47
2019-02-04T08:54:27.108Z,1025.52
2019-02-04T08:58:27.136Z,1025.53
2019-02-04T09:00:27.082Z,1025.53
2019-02-04T09:04:27.097Z,1025.50
2019-02-04T09:06:27.111Z,1025.47
2019-02-04T09:10:27.115Z,1025.50
2019-02-04T09:12:27.135Z,1025.49
2019-02-04T09:16:27.116Z,1025.36
2019-02-04T09:18:27.090Z,1025.49
2019-02-04T09:22:27.121Z,1025.42
2019-02-04T09:24:27.118Z,1025.45
2019-02-04T09:28:29.756Z,1025.33
2019-02-04T09:30:32.299Z,1025.28
2019-02-04T09:34:29.776Z,1025.15
2019-02-04T09:36:28.206Z,1025.12
2019-02-04T09:40:28.267Z,1025.15
2019-02-04T09:42:28.121Z,1025.14
2019-02-04T09:46:27.105Z,1025.10
2019-02-04T09:48:27.126Z,1025.00
2019-02-04T09:52:27.089Z,1025.08
2019-02-04T09:54:27.120Z,1024.94
2019-02-04T09:58:32.343Z,1024.88
2019-02-04T10:00:27.137Z,1024.97
2019-02-04T10:04:27.128Z,1024.99
2019-02-04T10:06:27.128Z,1024.85
2019-02-04T10:10:27.128Z,1024.84
2019-02-04T10:12:27.120Z,1024.93
2019-02-04T10:16:27.144Z,1024.91
2019-02-04T10:18:27.113Z,1024.96
2019-02-04T10:22:27.233Z,1024.96
2019-02-04T10:24:27.168Z,1024.95
2019-02-04T10:28:27.095Z,1024.99
2019-02-04T10:30:27.154Z,1024.96
2019-02-04T10:34:27.147Z,1024.97
2019-02-04T10:36:27.129Z,1024.92
2019-02-04T10:40:27.141Z,1025.00
2019-02-04T10:42:27.115Z,1024.96
2019-02-04T10:46:27.157Z,1025.01
2019-02-04T10:48:27.159Z,1024.88
2019-02-04T10:52:27.134Z,1024.83
2019-02-04T10:54:27.119Z,1024.89
2019-02-04T10:58:27.149Z,1024.89
2019-02-04T11:00:27.130Z,1024.85
2019-02-04T11:04:27.129Z,1024.79
2019-02-04T11:06:27.153Z,1024.79
2019-02-04T11:10:27.137Z,1024.75
2019-02-04T11:12:27.136Z,1024.73
2019-02-04T11:16:27.143Z,1024.59
2019-02-04T11:18:27.208Z,1024.66
2019-02-04T11:22:27.140Z,1024.56
2019-02-04T11:24:27.215Z,1024.43
2019-02-04T11:28:27.175Z,1024.53
2019-02-04T11:30:27.127Z,1024.60
2019-02-04T11:34:27.145Z,1024.52
2019-02-04T11:36:27.137Z,1024.46
2019-02-04T11:40:27.134Z,1024.43
2019-02-04T11:42:27.155Z,1024.41
2019-02-04T11:46:27.180Z,1024.32
2019-02-04T11:48:27.147Z,1024.25
2019-02-04T11:52:27.126Z,1024.24
2019-02-04T11:54:27.161Z,1024.24
2019-02-04T11:58:27.149Z,1024.19
2019-02-04T12:00:27.250Z,1024.35
2019-02-04T12:04:27.146Z,1024.29
2019-02-04T12:06:27.135Z,1024.35
2019-02-04T12:10:27.155Z,1024.39
2019-02-04T12:12:27.142Z,1024.36
2019-02-04T12:16:27.185Z,1024.31
2019-02-04T12:18:27.148Z,1024.25
2019-02-04T12:22:27.159Z,1024.30
2019-02-04T12:24:27.161Z,1024.33
2019-02-04T12:28:27.159Z,1024.24
2019-02-04T12:30:27.300Z,1024.30
2019-02-04T12:34:27.141Z,1024.21
2019-02-04T12:36:27.178Z,1024.20
2019-02-04T12:40:27.163Z,1024.17
2019-02-04T12:42:27.169Z,1024.17
2019-02-04T12:46:27.172Z,1024.12
2019-02-04T12:48:27.145Z,1024.12
2019-02-04T12:52:27.203Z,1023.87
2019-02-04T12:54:27.154Z,1023.63
2019-02-04T12:58:27.169Z,1023.67
2019-02-04T13:00:27.279Z,1023.86
2019-02-04T13:04:27.155Z,1023.79
2019-02-04T13:06:27.191Z,1023.87
2019-02-04T13:10:27.209Z,1023.87
2019-02-04T13:12:27.156Z,1023.74
2019-02-04T13:16:27.193Z,1023.74
2019-02-04T13:18:27.155Z,1023.75
2019-02-04T13:22:27.180Z,1023.72
2019-02-04T13:24:27.169Z,1023.81
2019-02-04T13:28:27.179Z,1023.67
2019-02-04T13:30:27.188Z,1023.60
2019-02-04T13:34:27.195Z,1023.62
2019-02-04T13:36:27.172Z,1023.60
2019-02-04T13:40:27.170Z,1023.49
2019-02-04T13:42:27.134Z,1023.40
2019-02-04T13:46:27.156Z,1023.41
2019-02-04T13:48:27.154Z,1023.28
2019-02-04T13:52:27.185Z,1023.27
2019-02-04T13:54:27.191Z,1023.23
2019-02-04T13:58:27.180Z,1023.27
2019-02-04T14:00:27.397Z,1023.24
2019-02-04T14:04:27.271Z,1023.15
2019-02-04T14:06:27.225Z,1023.27
2019-02-04T14:10:27.193Z,1023.29
2019-02-04T14:12:27.172Z,1023.22
2019-02-04T14:16:27.181Z,1023.16
2019-02-04T14:18:27.183Z,1023.11
2019-02-04T14:22:27.188Z,1023.10
2019-02-04T14:24:27.182Z,1023.07
2019-02-04T14:28:27.181Z,1022.98
2019-02-04T14:30:27.212Z,1022.92
2019-02-04T14:34:27.189Z,1022.84
2019-02-04T14:36:27.187Z,1022.86
2019-02-04T14:40:27.196Z,1022.88
2019-02-04T14:42:27.187Z,1022.79
2019-02-04T14:46:27.203Z,1022.80
2019-02-04T14:48:27.205Z,1022.78
2019-02-04T14:52:27.196Z,1022.65
2019-02-04T14:54:37.746Z,1022.78
2019-02-04T14:58:27.206Z,1022.70
2019-02-04T15:00:27.199Z,1022.67
2019-02-04T15:04:27.231Z,1022.69
2019-02-04T15:06:27.184Z,1022.73
2019-02-04T15:10:27.210Z,1022.86
2019-02-04T15:12:27.376Z,1022.77
2019-02-04T15:16:29.659Z,1022.82
2019-02-04T15:18:27.235Z,1022.72
2019-02-04T15:22:33.567Z,1022.74
2019-02-04T15:24:27.201Z,1022.69
2019-02-04T15:28:27.191Z,1022.63
2019-02-04T15:30:27.280Z,1022.56
2019-02-04T15:34:27.216Z,1022.53
2019-02-04T15:36:27.203Z,1022.57
2019-02-04T15:40:27.202Z,1022.47
2019-02-04T15:42:32.447Z,1022.33
2019-02-04T15:46:27.216Z,1022.54
2019-02-04T15:48:27.324Z,1022.46
2019-02-04T15:52:27.215Z,1022.45
2019-02-04T15:54:27.228Z,1022.49
2019-02-04T15:58:27.216Z,1022.53
2019-02-04T16:00:27.215Z,1022.50
2019-02-04T16:04:27.217Z,1022.33
2019-02-04T16:06:27.211Z,1022.29
2019-02-04T16:10:27.230Z,1022.35
2019-02-04T16:12:27.228Z,1022.41
2019-02-04T16:16:27.208Z,1022.33
2019-02-04T16:18:27.210Z,1022.44
2019-02-04T16:22:27.205Z,1022.57
2019-02-04T16:24:27.199Z,1022.48
2019-02-04T16:28:27.257Z,1022.49
2019-02-04T16:30:27.227Z,1022.59
2019-02-04T16:34:27.207Z,1022.69
2019-02-04T16:36:27.212Z,1022.63
2019-02-04T16:40:27.223Z,1022.57
2019-02-04T16:42:27.244Z,1022.70
2019-02-04T16:46:27.232Z,1022.65
2019-02-04T16:48:27.244Z,1022.63
2019-02-04T16:52:27.236Z,1022.82
2019-02-04T16:54:27.198Z,1022.73
2019-02-04T16:58:27.232Z,1022.75
2019-02-04T17:00:27.248Z,1022.79
2019-02-04T17:04:27.352Z,1022.70
2019-02-04T17:06:27.261Z,1022.71
2019-02-04T17:10:27.229Z,1022.66
2019-02-04T17:12:27.252Z,1022.73
2019-02-04T17:16:27.249Z,1022.72
2019-02-04T17:18:27.225Z,1022.76
2019-02-04T17:22:27.240Z,1022.79
2019-02-04T17:24:27.216Z,1022.85
2019-02-04T17:28:27.207Z,1022.80
2019-02-04T17:30:27.242Z,1022.69
2019-02-04T17:34:27.256Z,1022.69
2019-02-04T17:36:27.251Z,1022.75
2019-02-04T17:40:27.218Z,1022.80
2019-02-04T17:42:27.258Z,1022.84
2019-02-04T17:46:27.229Z,1022.88
2019-02-04T17:48:27.219Z,1022.95
2019-02-04T17:52:27.242Z,1022.92
2019-02-04T17:54:27.228Z,1023.06
2019-02-04T17:58:27.230Z,1023.01
2019-02-04T18:00:27.226Z,1022.98
2019-02-04T18:04:27.256Z,1023.06
2019-02-04T18:06:27.232Z,1023.10
2019-02-04T18:10:27.222Z,1023.17
2019-02-04T18:12:27.272Z,1023.26
2019-02-04T18:16:27.255Z,1023.27
2019-02-04T18:18:27.229Z,1023.25
2019-02-04T18:22:32.422Z,1023.10
2019-02-04T18:24:27.245Z,1023.26
2019-02-04T18:28:27.258Z,1023.16
2019-02-04T18:30:27.250Z,1023.19
2019-02-04T18:34:27.264Z,1023.21
2019-02-04T18:36:27.235Z,1023.16
2019-02-04T18:40:27.255Z,1023.29
2019-02-04T18:42:27.239Z,1023.21
2019-02-04T18:46:27.230Z,1023.25
2019-02-04T18:48:27.252Z,1023.25
2019-02-04T18:52:27.257Z,1023.26
2019-02-04T18:54:27.253Z,1023.25
2019-02-04T18:58:27.321Z,1023.35
2019-02-04T19:00:27.261Z,1023.38
2019-02-04T19:04:27.262Z,1023.32
2019-02-04T19:06:27.244Z,1023.46
2019-02-04T19:10:27.252Z,1023.49
2019-02-04T19:12:34.694Z,1023.51
2019-02-04T19:16:27.252Z,1023.41
2019-02-04T19:18:27.255Z,1023.45
2019-02-04T19:22:27.289Z,1023.51
2019-02-04T19:24:27.246Z,1023.52
2019-02-04T19:28:27.275Z,1023.49
2019-02-04T19:30:27.286Z,1023.50
2019-02-04T19:34:27.263Z,1023.62
2019-02-04T19:36:27.285Z,1023.58
2019-02-04T19:40:27.253Z,1023.49
2019-02-04T19:42:27.262Z,1023.48
2019-02-04T19:46:27.253Z,1023.43
2019-02-04T19:48:27.277Z,1023.46
2019-02-04T19:52:27.295Z,1023.45
2019-02-04T19:54:27.250Z,1023.49
2019-02-04T19:58:27.319Z,1023.77
2019-02-04T20:00:27.319Z,1023.73
2019-02-04T20:04:27.325Z,1023.61
2019-02-04T20:06:27.346Z,1023.49
2019-02-04T20:10:27.275Z,1023.51
2019-02-04T20:12:27.322Z,1023.58
2019-02-04T20:16:27.266Z,1023.51
2019-02-04T20:18:27.257Z,1023.63
2019-02-04T20:22:27.322Z,1023.53
2019-02-04T20:24:33.209Z,1023.59
2019-02-04T20:28:27.283Z,1023.59
2019-02-04T20:30:27.322Z,1023.48
2019-02-04T20:34:27.284Z,1023.60
2019-02-04T20:36:27.309Z,1023.60
2019-02-04T20:40:27.263Z,1023.72
2019-02-04T20:42:27.284Z,1023.76
2019-02-04T20:46:27.262Z,1023.84
2019-02-04T20:48:27.299Z,1023.90
2019-02-04T20:52:27.291Z,1023.90
2019-02-04T20:54:27.313Z,1023.91
2019-02-04T20:58:27.345Z,1024.09
2019-02-04T21:00:27.316Z,1024.03
2019-02-04T21:04:27.311Z,1024.06
2019-02-04T21:06:27.260Z,1024.04
2019-02-04T21:10:27.276Z,1024.07
2019-02-04T21:12:27.278Z,1023.99
2019-02-04T21:16:27.297Z,1023.94
2019-02-04T21:18:27.286Z,1023.91
2019-02-04T21:22:27.318Z,1023.94
2019-02-04T21:24:27.283Z,1023.85
2019-02-04T21:28:27.313Z,1023.98
2019-02-04T21:30:27.296Z,1024.01
2019-02-04T21:34:27.281Z,1024.02
2019-02-04T21:36:27.309Z,1024.06
2019-02-04T21:40:27.378Z,1024.14
2019-02-04T21:42:27.282Z,1024.06
2019-02-04T21:46:27.277Z,1024.03
2019-02-04T21:48:27.312Z,1024.07
2019-02-04T21:52:27.299Z,1024.16
2019-02-04T21:54:27.289Z,1024.11
2019-02-04T21:58:27.311Z,1024.27
2019-02-04T22:00:27.318Z,1024.14
2019-02-04T22:04:27.302Z,1024.08
2019-02-04T22:06:27.302Z,1024.06
2019-02-04T22:10:27.346Z,1024.01
2019-02-04T22:12:27.322Z,1024.18
2019-02-04T22:16:27.303Z,1024.08
2019-02-04T22:18:27.298Z,1024.18
2019-02-04T22:22:27.337Z,1024.08
2019-02-04T22:24:27.319Z,1024.16
2019-02-04T22:28:27.334Z,1024.08
2019-02-04T22:30:27.330Z,1024.10
2019-02-04T22:34:27.326Z,1024.12
2019-02-04T22:36:27.338Z,1024.12
2019-02-04T22:40:29.709Z,1024.10
2019-02-04T22:42:27.315Z,1024.15
2019-02-04T22:46:27.331Z,1024.29
2019-02-04T22:48:27.332Z,1024.22
2019-02-04T22:52:27.332Z,1024.11
2019-02-04T22:54:27.358Z,1024.15
2019-02-04T22:58:27.323Z,1024.28
2019-02-04T23:00:27.319Z,1024.32
2019-02-04T23:04:27.309Z,1024.36
2019-02-04T23:06:27.337Z,1024.43
2019-02-04T23:10:27.341Z,1024.43
2019-02-04T23:12:27.323Z,1024.42
2019-02-04T23:16:27.329Z,1024.36
2019-02-04T23:18:27.349Z,1024.39
2019-02-04T23:22:27.366Z,1024.58
2019-02-04T23:24:27.364Z,1024.63
2019-02-04T23:28:27.329Z,1024.66
2019-02-04T23:30:27.345Z,1024.64
2019-02-04T23:34:27.326Z,1024.68
2019-02-04T23:36:27.335Z,1024.68
2019-02-04T23:40:27.351Z,1024.73
2019-02-04T23:42:27.380Z,1024.84
2019-02-04T23:46:27.351Z,1024.88
2019-02-04T23:48:27.327Z,1024.90
2019-02-04T23:52:27.336Z,1024.92
2019-02-04T23:54:27.355Z,1024.99
2019-02-04T23:58:27.411Z,1024.96
